sensor_id;sensor_type;location;lat;lon;timestamp;P1;durP1;ratioP1;P2;durP2;ratioP2
6937;SDS011;40040;42.706;23.372;2022-08-21T00:01:59;12.73;;;8.80;;
6937;SDS011;40040;42.706;23.372;2022-08-21T00:04:26;11.55;;;8.23;;
6937;SDS011;40040;42.706;23.372;2022-08-21T00:06:53;10.20;;;7.72;;
6937;SDS011;40040;42.706;23.372;2022-08-21T00:09:20;11.27;;;8.35;;
6937;SDS011;40040;42.706;23.372;2022-08-21T00:11:48;10.93;;;8.23;;
6937;SDS011;40040;42.706;23.372;2022-08-21T00:14:16;10.77;;;7.53;;
6937;SDS011;40040;42.706;23.372;2022-08-21T00:16:43;9.80;;;7.35;;
6937;SDS011;40040;42.706;23.372;2022-08-21T00:19:10;13.43;;;8.40;;
6937;SDS011;40040;42.706;23.372;2022-08-21T00:21:37;13.10;;;8.13;;
6937;SDS011;40040;42.706;23.372;2022-08-21T00:24:05;12.63;;;8.98;;
6937;SDS011;40040;42.706;23.372;2022-08-21T00:26:32;13.00;;;8.70;;
6937;SDS011;40040;42.706;23.372;2022-08-21T00:29:00;15.35;;;9.20;;
6937;SDS011;40040;42.706;23.372;2022-08-21T00:31:28;11.95;;;8.85;;
6937;SDS011;40040;42.706;23.372;2022-08-21T00:33:54;11.82;;;7.70;;
6937;SDS011;40040;42.706;23.372;2022-08-21T00:36:21;15.55;;;9.27;;
6937;SDS011;40040;42.706;23.372;2022-08-21T00:38:48;15.35;;;10.13;;
6937;SDS011;40040;42.706;23.372;2022-08-21T00:41:15;18.42;;;10.73;;
6937;SDS011;40040;42.706;23.372;2022-08-21T00:43:43;17.98;;;11.05;;
6937;SDS011;40040;42.706;23.372;2022-08-21T00:46:11;16.73;;;11.45;;
6937;SDS011;40040;42.706;23.372;2022-08-21T00:48:38;19.75;;;12.18;;
6937;SDS011;40040;42.706;23.372;2022-08-21T00:51:06;17.90;;;11.90;;
6937;SDS011;40040;42.706;23.372;2022-08-21T00:53:36;19.00;;;12.32;;
6937;SDS011;40040;42.706;23.372;2022-08-21T00:56:05;21.35;;;13.05;;
6937;SDS011;40040;42.706;23.372;2022-08-21T00:58:34;22.85;;;12.98;;
6937;SDS011;40040;42.706;23.372;2022-08-21T01:01:04;24.83;;;14.32;;
6937;SDS011;40040;42.706;23.372;2022-08-21T01:03:34;22.92;;;14.32;;
6937;SDS011;40040;42.706;23.372;2022-08-21T01:06:02;23.60;;;15.15;;
6937;SDS011;40040;42.706;23.372;2022-08-21T01:08:31;23.88;;;13.65;;
6937;SDS011;40040;42.706;23.372;2022-08-21T01:10:59;25.48;;;14.68;;
6937;SDS011;40040;42.706;23.372;2022-08-21T01:13:27;22.25;;;14.50;;
6937;SDS011;40040;42.706;23.372;2022-08-21T01:15:56;23.85;;;14.05;;
6937;SDS011;40040;42.706;23.372;2022-08-21T01:18:26;23.63;;;13.93;;
6937;SDS011;40040;42.706;23.372;2022-08-21T01:21:05;25.50;;;15.43;;
6937;SDS011;40040;42.706;23.372;2022-08-21T01:23:34;24.15;;;15.40;;
6937;SDS011;40040;42.706;23.372;2022-08-21T01:26:01;23.65;;;15.70;;
6937;SDS011;40040;42.706;23.372;2022-08-21T01:28:28;30.15;;;16.52;;
6937;SDS011;40040;42.706;23.372;2022-08-21T01:30:59;26.83;;;15.20;;
6937;SDS011;40040;42.706;23.372;2022-08-21T01:33:28;25.80;;;16.17;;
6937;SDS011;40040;42.706;23.372;2022-08-21T01:35:55;28.25;;;16.17;;
6937;SDS011;40040;42.706;23.372;2022-08-21T01:38:23;23.10;;;14.73;;
6937;SDS011;40040;42.706;23.372;2022-08-21T01:40:50;21.45;;;13.63;;
6937;SDS011;40040;42.706;23.372;2022-08-21T01:43:17;22.00;;;13.43;;
6937;SDS011;40040;42.706;23.372;2022-08-21T01:45:44;24.85;;;14.23;;
6937;SDS011;40040;42.706;23.372;2022-08-21T01:48:10;22.33;;;13.57;;
6937;SDS011;40040;42.706;23.372;2022-08-21T01:50:37;21.45;;;14.30;;
6937;SDS011;40040;42.706;23.372;2022-08-21T01:53:04;21.45;;;13.57;;
6937;SDS011;40040;42.706;23.372;2022-08-21T01:55:33;21.35;;;13.60;;
6937;SDS011;40040;42.706;23.372;2022-08-21T01:57:59;21.95;;;14.70;;
6937;SDS011;40040;42.706;23.372;2022-08-21T02:00:27;22.48;;;13.57;;
6937;SDS011;40040;42.706;23.372;2022-08-21T02:02:54;24.67;;;13.10;;
6937;SDS011;40040;42.706;23.372;2022-08-21T02:05:21;22.50;;;14.18;;
6937;SDS011;40040;42.706;23.372;2022-08-21T02:07:48;18.58;;;12.68;;
6937;SDS011;40040;42.706;23.372;2022-08-21T02:10:19;16.88;;;11.38;;
6937;SDS011;40040;42.706;23.372;2022-08-21T02:12:50;19.95;;;12.35;;
6937;SDS011;40040;42.706;23.372;2022-08-21T02:15:17;17.77;;;11.50;;
6937;SDS011;40040;42.706;23.372;2022-08-21T02:17:45;17.00;;;11.60;;
6937;SDS011;40040;42.706;23.372;2022-08-21T02:20:15;17.55;;;11.68;;
6937;SDS011;40040;42.706;23.372;2022-08-21T02:22:44;18.63;;;13.18;;
6937;SDS011;40040;42.706;23.372;2022-08-21T02:25:11;16.50;;;12.02;;
6937;SDS011;40040;42.706;23.372;2022-08-21T02:27:38;20.38;;;11.65;;
6937;SDS011;40040;42.706;23.372;2022-08-21T02:30:08;18.20;;;11.80;;
6937;SDS011;40040;42.706;23.372;2022-08-21T02:32:38;16.38;;;11.57;;
6937;SDS011;40040;42.706;23.372;2022-08-21T02:35:05;18.65;;;13.32;;
6937;SDS011;40040;42.706;23.372;2022-08-21T02:37:33;20.88;;;12.55;;
6937;SDS011;40040;42.706;23.372;2022-08-21T02:40:00;20.27;;;12.98;;
6937;SDS011;40040;42.706;23.372;2022-08-21T02:42:27;18.90;;;13.00;;
6937;SDS011;40040;42.706;23.372;2022-08-21T02:44:55;22.02;;;12.77;;
6937;SDS011;40040;42.706;23.372;2022-08-21T02:47:23;27.63;;;15.70;;
6937;SDS011;40040;42.706;23.372;2022-08-21T02:49:50;21.25;;;14.13;;
6937;SDS011;40040;42.706;23.372;2022-08-21T02:52:18;19.02;;;13.57;;
6937;SDS011;40040;42.706;23.372;2022-08-21T02:54:47;23.60;;;13.60;;
6937;SDS011;40040;42.706;23.372;2022-08-21T02:57:14;20.33;;;14.05;;
6937;SDS011;40040;42.706;23.372;2022-08-21T02:59:40;22.10;;;13.98;;
6937;SDS011;40040;42.706;23.372;2022-08-21T03:02:07;27.27;;;15.32;;
6937;SDS011;40040;42.706;23.372;2022-08-21T03:04:38;21.60;;;13.57;;
6937;SDS011;40040;42.706;23.372;2022-08-21T03:07:04;22.95;;;14.50;;
6937;SDS011;40040;42.706;23.372;2022-08-21T03:09:31;22.17;;;14.30;;
6937;SDS011;40040;42.706;23.372;2022-08-21T03:11:58;23.52;;;14.35;;
6937;SDS011;40040;42.706;23.372;2022-08-21T03:14:25;27.13;;;14.48;;
6937;SDS011;40040;42.706;23.372;2022-08-21T03:16:52;22.88;;;14.40;;
6937;SDS011;40040;42.706;23.372;2022-08-21T03:19:19;23.65;;;14.70;;
6937;SDS011;40040;42.706;23.372;2022-08-21T03:21:47;21.58;;;13.30;;
6937;SDS011;40040;42.706;23.372;2022-08-21T03:24:14;23.15;;;14.00;;
6937;SDS011;40040;42.706;23.372;2022-08-21T03:26:41;18.27;;;12.32;;
6937;SDS011;40040;42.706;23.372;2022-08-21T03:29:08;19.15;;;12.13;;
6937;SDS011;40040;42.706;23.372;2022-08-21T03:31:34;18.45;;;11.93;;
6937;SDS011;40040;42.706;23.372;2022-08-21T03:34:01;17.15;;;11.70;;
6937;SDS011;40040;42.706;23.372;2022-08-21T03:36:28;22.80;;;12.27;;
6937;SDS011;40040;42.706;23.372;2022-08-21T03:38:56;19.40;;;11.68;;
6937;SDS011;40040;42.706;23.372;2022-08-21T03:41:23;18.48;;;12.55;;
6937;SDS011;40040;42.706;23.372;2022-08-21T03:43:50;20.85;;;12.90;;
6937;SDS011;40040;42.706;23.372;2022-08-21T03:46:17;19.58;;;12.88;;
6937;SDS011;40040;42.706;23.372;2022-08-21T03:48:43;17.73;;;12.75;;
6937;SDS011;40040;42.706;23.372;2022-08-21T03:51:10;18.08;;;12.90;;
6937;SDS011;40040;42.706;23.372;2022-08-21T03:53:37;21.98;;;14.02;;
6937;SDS011;40040;42.706;23.372;2022-08-21T03:56:06;21.83;;;12.70;;
6937;SDS011;40040;42.706;23.372;2022-08-21T03:58:33;20.38;;;12.70;;
6937;SDS011;40040;42.706;23.372;2022-08-21T04:01:00;18.55;;;11.18;;
6937;SDS011;40040;42.706;23.372;2022-08-21T04:03:29;15.52;;;10.98;;
6937;SDS011;40040;42.706;23.372;2022-08-21T04:05:56;15.35;;;10.52;;
6937;SDS011;40040;42.706;23.372;2022-08-21T04:08:23;15.27;;;10.30;;
6937;SDS011;40040;42.706;23.372;2022-08-21T04:10:51;14.68;;;10.50;;
6937;SDS011;40040;42.706;23.372;2022-08-21T04:13:21;13.52;;;10.25;;
6937;SDS011;40040;42.706;23.372;2022-08-21T04:15:48;15.13;;;9.95;;
6937;SDS011;40040;42.706;23.372;2022-08-21T04:18:15;14.55;;;9.98;;
6937;SDS011;40040;42.706;23.372;2022-08-21T04:20:43;15.77;;;10.10;;
6937;SDS011;40040;42.706;23.372;2022-08-21T04:23:12;11.70;;;9.73;;
6937;SDS011;40040;42.706;23.372;2022-08-21T04:25:39;15.10;;;9.80;;
6937;SDS011;40040;42.706;23.372;2022-08-21T04:28:06;18.00;;;10.57;;
6937;SDS011;40040;42.706;23.372;2022-08-21T04:30:34;19.52;;;10.70;;
6937;SDS011;40040;42.706;23.372;2022-08-21T04:33:01;14.65;;;9.93;;
6937;SDS011;40040;42.706;23.372;2022-08-21T04:35:29;13.60;;;10.07;;
6937;SDS011;40040;42.706;23.372;2022-08-21T04:37:56;18.17;;;10.60;;
6937;SDS011;40040;42.706;23.372;2022-08-21T04:40:24;14.57;;;10.13;;
6937;SDS011;40040;42.706;23.372;2022-08-21T04:42:53;15.43;;;10.50;;
6937;SDS011;40040;42.706;23.372;2022-08-21T04:45:22;16.15;;;10.60;;
6937;SDS011;40040;42.706;23.372;2022-08-21T04:47:53;16.67;;;10.13;;
6937;SDS011;40040;42.706;23.372;2022-08-21T04:50:21;17.98;;;11.90;;
6937;SDS011;40040;42.706;23.372;2022-08-21T04:52:50;16.23;;;10.63;;
6937;SDS011;40040;42.706;23.372;2022-08-21T04:55:18;14.32;;;10.48;;
6937;SDS011;40040;42.706;23.372;2022-08-21T04:57:46;15.40;;;10.38;;
6937;SDS011;40040;42.706;23.372;2022-08-21T05:00:16;15.73;;;10.70;;
6937;SDS011;40040;42.706;23.372;2022-08-21T05:02:44;17.98;;;11.85;;
6937;SDS011;40040;42.706;23.372;2022-08-21T05:05:13;18.40;;;11.93;;
6937;SDS011;40040;42.706;23.372;2022-08-21T05:07:41;18.58;;;11.20;;
6937;SDS011;40040;42.706;23.372;2022-08-21T05:10:10;17.75;;;11.90;;
6937;SDS011;40040;42.706;23.372;2022-08-21T05:12:39;14.60;;;10.90;;
6937;SDS011;40040;42.706;23.372;2022-08-21T05:15:07;17.27;;;12.10;;
6937;SDS011;40040;42.706;23.372;2022-08-21T05:17:34;17.52;;;11.85;;
6937;SDS011;40040;42.706;23.372;2022-08-21T05:20:01;15.98;;;11.60;;
6937;SDS011;40040;42.706;23.372;2022-08-21T05:22:29;16.80;;;12.20;;
6937;SDS011;40040;42.706;23.372;2022-08-21T05:24:56;15.93;;;11.50;;
6937;SDS011;40040;42.706;23.372;2022-08-21T05:27:23;16.58;;;11.48;;
6937;SDS011;40040;42.706;23.372;2022-08-21T05:29:50;18.65;;;12.23;;
6937;SDS011;40040;42.706;23.372;2022-08-21T05:32:17;18.45;;;12.45;;
6937;SDS011;40040;42.706;23.372;2022-08-21T05:34:44;17.75;;;12.02;;
6937;SDS011;40040;42.706;23.372;2022-08-21T05:37:11;16.85;;;11.45;;
6937;SDS011;40040;42.706;23.372;2022-08-21T05:39:40;17.98;;;11.85;;
6937;SDS011;40040;42.706;23.372;2022-08-21T05:42:07;15.55;;;11.68;;
6937;SDS011;40040;42.706;23.372;2022-08-21T05:44:34;15.95;;;11.20;;
6937;SDS011;40040;42.706;23.372;2022-08-21T05:47:04;17.92;;;11.50;;
6937;SDS011;40040;42.706;23.372;2022-08-21T05:49:32;15.13;;;11.48;;
6937;SDS011;40040;42.706;23.372;2022-08-21T05:51:59;16.00;;;11.48;;
6937;SDS011;40040;42.706;23.372;2022-08-21T05:54:26;17.88;;;11.23;;
6937;SDS011;40040;42.706;23.372;2022-08-21T05:56:55;15.25;;;10.38;;
6937;SDS011;40040;42.706;23.372;2022-08-21T05:59:22;13.38;;;9.82;;
6937;SDS011;40040;42.706;23.372;2022-08-21T06:01:49;14.10;;;10.52;;
6937;SDS011;40040;42.706;23.372;2022-08-21T06:04:17;14.02;;;9.90;;
6937;SDS011;40040;42.706;23.372;2022-08-21T06:06:44;14.57;;;9.77;;
6937;SDS011;40040;42.706;23.372;2022-08-21T06:09:12;15.30;;;10.38;;
6937;SDS011;40040;42.706;23.372;2022-08-21T06:11:38;14.27;;;10.00;;
6937;SDS011;40040;42.706;23.372;2022-08-21T06:14:07;13.85;;;10.05;;
6937;SDS011;40040;42.706;23.372;2022-08-21T06:16:33;13.60;;;9.98;;
6937;SDS011;40040;42.706;23.372;2022-08-21T06:19:00;11.73;;;9.57;;
6937;SDS011;40040;42.706;23.372;2022-08-21T06:21:27;13.15;;;9.48;;
6937;SDS011;40040;42.706;23.372;2022-08-21T06:23:54;15.50;;;9.80;;
6937;SDS011;40040;42.706;23.372;2022-08-21T06:26:21;14.35;;;9.95;;
6937;SDS011;40040;42.706;23.372;2022-08-21T06:28:49;11.80;;;9.20;;
6937;SDS011;40040;42.706;23.372;2022-08-21T06:31:18;13.45;;;9.23;;
6937;SDS011;40040;42.706;23.372;2022-08-21T06:33:46;14.63;;;10.30;;
6937;SDS011;40040;42.706;23.372;2022-08-21T06:36:13;13.25;;;9.95;;
6937;SDS011;40040;42.706;23.372;2022-08-21T06:38:41;14.70;;;9.85;;
6937;SDS011;40040;42.706;23.372;2022-08-21T06:41:08;13.35;;;9.40;;
6937;SDS011;40040;42.706;23.372;2022-08-21T06:43:34;13.75;;;9.77;;
6937;SDS011;40040;42.706;23.372;2022-08-21T06:46:01;13.23;;;9.07;;
6937;SDS011;40040;42.706;23.372;2022-08-21T06:48:30;12.63;;;9.35;;
6937;SDS011;40040;42.706;23.372;2022-08-21T06:50:58;13.63;;;9.32;;
6937;SDS011;40040;42.706;23.372;2022-08-21T06:53:25;13.13;;;9.57;;
6937;SDS011;40040;42.706;23.372;2022-08-21T06:55:52;13.65;;;9.25;;
6937;SDS011;40040;42.706;23.372;2022-08-21T06:58:20;12.13;;;8.95;;
6937;SDS011;40040;42.706;23.372;2022-08-21T07:00:47;10.73;;;8.55;;
6937;SDS011;40040;42.706;23.372;2022-08-21T07:03:19;12.95;;;8.05;;
6937;SDS011;40040;42.706;23.372;2022-08-21T07:05:50;11.10;;;7.97;;
6937;SDS011;40040;42.706;23.372;2022-08-21T07:08:17;8.50;;;7.32;;
6937;SDS011;40040;42.706;23.372;2022-08-21T07:10:44;11.43;;;7.90;;
6937;SDS011;40040;42.706;23.372;2022-08-21T07:13:12;10.50;;;8.20;;
6937;SDS011;40040;42.706;23.372;2022-08-21T07:15:39;12.57;;;8.75;;
6937;SDS011;40040;42.706;23.372;2022-08-21T07:18:07;12.30;;;8.43;;
6937;SDS011;40040;42.706;23.372;2022-08-21T07:20:37;13.95;;;8.55;;
6937;SDS011;40040;42.706;23.372;2022-08-21T07:23:07;15.13;;;8.23;;
6937;SDS011;40040;42.706;23.372;2022-08-21T07:25:40;12.75;;;9.02;;
6937;SDS011;40040;42.706;23.372;2022-08-21T07:28:08;13.15;;;8.13;;
6937;SDS011;40040;42.706;23.372;2022-08-21T07:30:38;12.40;;;8.50;;
6937;SDS011;40040;42.706;23.372;2022-08-21T07:33:05;14.05;;;9.90;;
6937;SDS011;40040;42.706;23.372;2022-08-21T07:35:32;11.15;;;8.60;;
6937;SDS011;40040;42.706;23.372;2022-08-21T07:38:00;14.20;;;8.85;;
6937;SDS011;40040;42.706;23.372;2022-08-21T07:40:29;13.85;;;9.30;;
6937;SDS011;40040;42.706;23.372;2022-08-21T07:42:57;14.55;;;9.73;;
6937;SDS011;40040;42.706;23.372;2022-08-21T07:45:24;14.20;;;8.82;;
6937;SDS011;40040;42.706;23.372;2022-08-21T07:47:52;11.77;;;8.88;;
6937;SDS011;40040;42.706;23.372;2022-08-21T07:50:22;12.80;;;8.65;;
6937;SDS011;40040;42.706;23.372;2022-08-21T07:52:50;9.90;;;8.18;;
6937;SDS011;40040;42.706;23.372;2022-08-21T07:55:21;12.02;;;8.27;;
6937;SDS011;40040;42.706;23.372;2022-08-21T07:57:50;8.85;;;7.95;;
6937;SDS011;40040;42.706;23.372;2022-08-21T08:00:19;11.00;;;8.55;;
6937;SDS011;40040;42.706;23.372;2022-08-21T08:02:48;10.35;;;7.75;;
6937;SDS011;40040;42.706;23.372;2022-08-21T08:05:19;12.57;;;8.18;;
6937;SDS011;40040;42.706;23.372;2022-08-21T08:07:51;9.20;;;7.43;;
6937;SDS011;40040;42.706;23.372;2022-08-21T08:10:19;11.77;;;7.38;;
6937;SDS011;40040;42.706;23.372;2022-08-21T08:12:47;8.77;;;7.55;;
6937;SDS011;40040;42.706;23.372;2022-08-21T08:15:19;13.88;;;7.38;;
6937;SDS011;40040;42.706;23.372;2022-08-21T08:17:48;10.35;;;8.15;;
6937;SDS011;40040;42.706;23.372;2022-08-21T08:20:16;11.00;;;7.53;;
6937;SDS011;40040;42.706;23.372;2022-08-21T08:22:47;10.20;;;7.97;;
6937;SDS011;40040;42.706;23.372;2022-08-21T08:25:16;14.93;;;9.77;;
6937;SDS011;40040;42.706;23.372;2022-08-21T08:27:45;11.65;;;7.80;;
6937;SDS011;40040;42.706;23.372;2022-08-21T08:30:13;8.75;;;7.35;;
6937;SDS011;40040;42.706;23.372;2022-08-21T08:32:43;10.20;;;7.25;;
6937;SDS011;40040;42.706;23.372;2022-08-21T08:35:11;10.52;;;7.00;;
6937;SDS011;40040;42.706;23.372;2022-08-21T08:37:42;8.50;;;7.13;;
6937;SDS011;40040;42.706;23.372;2022-08-21T08:40:12;7.65;;;6.85;;
6937;SDS011;40040;42.706;23.372;2022-08-21T08:42:50;8.40;;;7.30;;
6937;SDS011;40040;42.706;23.372;2022-08-21T08:45:20;9.52;;;6.95;;
6937;SDS011;40040;42.706;23.372;2022-08-21T08:47:57;9.68;;;7.07;;
6937;SDS011;40040;42.706;23.372;2022-08-21T08:50:33;14.82;;;8.77;;
6937;SDS011;40040;42.706;23.372;2022-08-21T08:53:10;10.02;;;8.13;;
6937;SDS011;40040;42.706;23.372;2022-08-21T08:55:43;11.43;;;7.80;;
6937;SDS011;40040;42.706;23.372;2022-08-21T08:58:15;12.07;;;8.45;;
6937;SDS011;40040;42.706;23.372;2022-08-21T09:00:47;12.43;;;9.00;;
6937;SDS011;40040;42.706;23.372;2022-08-21T09:03:18;11.15;;;8.23;;
6937;SDS011;40040;42.706;23.372;2022-08-21T09:05:46;15.63;;;8.25;;
6937;SDS011;40040;42.706;23.372;2022-08-21T09:08:28;13.30;;;8.73;;
6937;SDS011;40040;42.706;23.372;2022-08-21T09:11:20;10.32;;;8.27;;
6937;SDS011;40040;42.706;23.372;2022-08-21T09:13:55;13.90;;;8.05;;
6937;SDS011;40040;42.706;23.372;2022-08-21T09:16:38;14.40;;;8.32;;
6937;SDS011;40040;42.706;23.372;2022-08-21T09:19:18;13.18;;;8.77;;
6937;SDS011;40040;42.706;23.372;2022-08-21T09:21:57;10.82;;;8.63;;
6937;SDS011;40040;42.706;23.372;2022-08-21T09:24:31;11.00;;;8.05;;
6937;SDS011;40040;42.706;23.372;2022-08-21T09:27:06;14.02;;;8.73;;
6937;SDS011;40040;42.706;23.372;2022-08-21T09:29:36;9.27;;;8.00;;
6937;SDS011;40040;42.706;23.372;2022-08-21T09:32:09;8.70;;;7.05;;
6937;SDS011;40040;42.706;23.372;2022-08-21T09:34:40;7.28;;;6.60;;
6937;SDS011;40040;42.706;23.372;2022-08-21T09:37:15;7.07;;;6.38;;
6937;SDS011;40040;42.706;23.372;2022-08-21T09:39:45;11.38;;;7.50;;
6937;SDS011;40040;42.706;23.372;2022-08-21T09:42:20;9.77;;;7.07;;
6937;SDS011;40040;42.706;23.372;2022-08-21T09:45:00;8.70;;;6.57;;
6937;SDS011;40040;42.706;23.372;2022-08-21T09:47:37;7.47;;;6.10;;
6937;SDS011;40040;42.706;23.372;2022-08-21T09:50:10;8.43;;;6.18;;
6937;SDS011;40040;42.706;23.372;2022-08-21T09:52:44;9.65;;;7.10;;
6937;SDS011;40040;42.706;23.372;2022-08-21T09:55:19;9.30;;;6.80;;
6937;SDS011;40040;42.706;23.372;2022-08-21T09:58:07;10.18;;;6.22;;
6937;SDS011;40040;42.706;23.372;2022-08-21T10:00:35;6.82;;;6.05;;
6937;SDS011;40040;42.706;23.372;2022-08-21T10:03:10;8.32;;;6.55;;
6937;SDS011;40040;42.706;23.372;2022-08-21T10:05:49;9.48;;;6.65;;
6937;SDS011;40040;42.706;23.372;2022-08-21T10:08:22;6.45;;;5.90;;
6937;SDS011;40040;42.706;23.372;2022-08-21T10:10:56;7.25;;;6.10;;
6937;SDS011;40040;42.706;23.372;2022-08-21T10:13:30;7.82;;;6.07;;
6937;SDS011;40040;42.706;23.372;2022-08-21T10:16:13;8.98;;;6.60;;
6937;SDS011;40040;42.706;23.372;2022-08-21T10:18:50;7.75;;;6.60;;
6937;SDS011;40040;42.706;23.372;2022-08-21T10:21:34;7.50;;;6.25;;
6937;SDS011;40040;42.706;23.372;2022-08-21T10:24:18;7.65;;;5.78;;
6937;SDS011;40040;42.706;23.372;2022-08-21T10:26:54;8.07;;;5.82;;
6937;SDS011;40040;42.706;23.372;2022-08-21T10:29:38;8.75;;;6.35;;
6937;SDS011;40040;42.706;23.372;2022-08-21T10:32:14;8.60;;;6.47;;
6937;SDS011;40040;42.706;23.372;2022-08-21T10:34:54;8.32;;;6.60;;
6937;SDS011;40040;42.706;23.372;2022-08-21T10:37:41;9.02;;;6.57;;
6937;SDS011;40040;42.706;23.372;2022-08-21T10:40:21;9.50;;;6.88;;
6937;SDS011;40040;42.706;23.372;2022-08-21T10:42:58;6.63;;;5.82;;
6937;SDS011;40040;42.706;23.372;2022-08-21T10:45:45;10.40;;;5.82;;
6937;SDS011;40040;42.706;23.372;2022-08-21T10:48:22;7.22;;;5.45;;
6937;SDS011;40040;42.706;23.372;2022-08-21T10:50:56;7.38;;;6.40;;
6937;SDS011;40040;42.706;23.372;2022-08-21T10:53:39;7.95;;;5.72;;
6937;SDS011;40040;42.706;23.372;2022-08-21T10:56:20;11.40;;;5.63;;
6937;SDS011;40040;42.706;23.372;2022-08-21T10:58:56;6.28;;;5.68;;
6937;SDS011;40040;42.706;23.372;2022-08-21T11:01:32;8.55;;;6.00;;
6937;SDS011;40040;42.706;23.372;2022-08-21T11:04:12;8.95;;;5.90;;
6937;SDS011;40040;42.706;23.372;2022-08-21T11:06:45;10.32;;;6.10;;
6937;SDS011;40040;42.706;23.372;2022-08-21T11:09:18;7.53;;;6.13;;
6937;SDS011;40040;42.706;23.372;2022-08-21T11:11:47;8.30;;;5.80;;
6937;SDS011;40040;42.706;23.372;2022-08-21T11:14:25;7.50;;;5.50;;
6937;SDS011;40040;42.706;23.372;2022-08-21T11:17:01;10.50;;;7.20;;
6937;SDS011;40040;42.706;23.372;2022-08-21T11:19:35;8.23;;;6.25;;
6937;SDS011;40040;42.706;23.372;2022-08-21T11:22:11;9.30;;;5.40;;
6937;SDS011;40040;42.706;23.372;2022-08-21T11:24:46;6.38;;;5.75;;
6937;SDS011;40040;42.706;23.372;2022-08-21T11:27:21;6.63;;;5.63;;
6937;SDS011;40040;42.706;23.372;2022-08-21T11:29:54;7.43;;;5.45;;
6937;SDS011;40040;42.706;23.372;2022-08-21T11:32:36;6.32;;;5.60;;
6937;SDS011;40040;42.706;23.372;2022-08-21T11:35:20;5.15;;;4.63;;
6937;SDS011;40040;42.706;23.372;2022-08-21T11:38:04;6.00;;;5.35;;
6937;SDS011;40040;42.706;23.372;2022-08-21T11:43:39;6.10;;;5.50;;
6937;SDS011;40040;42.706;23.372;2022-08-21T11:46:18;8.50;;;6.15;;
6937;SDS011;40040;42.706;23.372;2022-08-21T11:48:59;8.57;;;5.75;;
6937;SDS011;40040;42.706;23.372;2022-08-21T11:51:35;8.48;;;6.00;;
6937;SDS011;40040;42.706;23.372;2022-08-21T11:54:11;8.75;;;6.88;;
6937;SDS011;40040;42.706;23.372;2022-08-21T11:56:53;9.88;;;6.57;;
6937;SDS011;40040;42.706;23.372;2022-08-21T11:59:26;7.30;;;6.15;;
6937;SDS011;40040;42.706;23.372;2022-08-21T12:02:02;10.05;;;6.60;;
6937;SDS011;40040;42.706;23.372;2022-08-21T12:04:42;7.85;;;6.60;;
6937;SDS011;40040;42.706;23.372;2022-08-21T12:07:16;7.80;;;7.00;;
6937;SDS011;40040;42.706;23.372;2022-08-21T12:09:57;8.00;;;6.70;;
6937;SDS011;40040;42.706;23.372;2022-08-21T12:12:27;7.45;;;6.53;;
6937;SDS011;40040;42.706;23.372;2022-08-21T12:17:52;7.40;;;6.70;;
6937;SDS011;40040;42.706;23.372;2022-08-21T12:20:33;8.65;;;6.30;;
6937;SDS011;40040;42.706;23.372;2022-08-21T12:23:16;8.00;;;6.63;;
6937;SDS011;40040;42.706;23.372;2022-08-21T12:25:46;9.18;;;6.57;;
6937;SDS011;40040;42.706;23.372;2022-08-21T12:28:26;8.02;;;6.32;;
6937;SDS011;40040;42.706;23.372;2022-08-21T12:30:55;6.90;;;6.07;;
6937;SDS011;40040;42.706;23.372;2022-08-21T12:33:24;6.65;;;6.05;;
6937;SDS011;40040;42.706;23.372;2022-08-21T12:36:04;10.48;;;7.03;;
6937;SDS011;40040;42.706;23.372;2022-08-21T12:38:39;7.78;;;6.40;;
6937;SDS011;40040;42.706;23.372;2022-08-21T12:41:17;7.75;;;5.72;;
6937;SDS011;40040;42.706;23.372;2022-08-21T12:43:50;8.05;;;6.40;;
6937;SDS011;40040;42.706;23.372;2022-08-21T12:46:25;8.05;;;6.18;;
6937;SDS011;40040;42.706;23.372;2022-08-21T12:49:02;8.52;;;6.70;;
6937;SDS011;40040;42.706;23.372;2022-08-21T12:51:38;7.78;;;6.95;;
6937;SDS011;40040;42.706;23.372;2022-08-21T12:54:21;8.57;;;7.03;;
6937;SDS011;40040;42.706;23.372;2022-08-21T12:56:57;9.70;;;6.13;;
6937;SDS011;40040;42.706;23.372;2022-08-21T12:59:27;8.80;;;6.40;;
6937;SDS011;40040;42.706;23.372;2022-08-21T13:01:56;8.73;;;6.22;;
6937;SDS011;40040;42.706;23.372;2022-08-21T13:04:38;7.55;;;6.00;;
6937;SDS011;40040;42.706;23.372;2022-08-21T13:07:09;7.30;;;5.90;;
6937;SDS011;40040;42.706;23.372;2022-08-21T13:09:41;8.18;;;6.85;;
6937;SDS011;40040;42.706;23.372;2022-08-21T13:12:13;6.60;;;5.85;;
6937;SDS011;40040;42.706;23.372;2022-08-21T13:14:44;7.45;;;5.75;;
6937;SDS011;40040;42.706;23.372;2022-08-21T13:17:14;7.40;;;5.25;;
6937;SDS011;40040;42.706;23.372;2022-08-21T13:19:52;12.48;;;6.80;;
6937;SDS011;40040;42.706;23.372;2022-08-21T13:22:27;6.72;;;5.63;;
6937;SDS011;40040;42.706;23.372;2022-08-21T13:24:55;7.07;;;6.20;;
6937;SDS011;40040;42.706;23.372;2022-08-21T13:27:24;7.03;;;5.80;;
6937;SDS011;40040;42.706;23.372;2022-08-21T13:30:05;6.82;;;6.13;;
6937;SDS011;40040;42.706;23.372;2022-08-21T13:32:37;7.00;;;5.68;;
6937;SDS011;40040;42.706;23.372;2022-08-21T13:35:17;10.48;;;6.10;;
6937;SDS011;40040;42.706;23.372;2022-08-21T13:37:47;8.40;;;5.90;;
6937;SDS011;40040;42.706;23.372;2022-08-21T13:40:17;6.50;;;5.80;;
6937;SDS011;40040;42.706;23.372;2022-08-21T13:42:49;6.18;;;5.55;;
6937;SDS011;40040;42.706;23.372;2022-08-21T13:45:22;8.80;;;5.68;;
6937;SDS011;40040;42.706;23.372;2022-08-21T13:47:50;9.70;;;5.68;;
6937;SDS011;40040;42.706;23.372;2022-08-21T13:50:20;7.57;;;5.60;;
6937;SDS011;40040;42.706;23.372;2022-08-21T13:52:54;7.30;;;5.65;;
6937;SDS011;40040;42.706;23.372;2022-08-21T13:55:24;8.38;;;5.50;;
6937;SDS011;40040;42.706;23.372;2022-08-21T13:57:59;9.30;;;5.88;;
6937;SDS011;40040;42.706;23.372;2022-08-21T14:00:31;7.43;;;5.97;;
6937;SDS011;40040;42.706;23.372;2022-08-21T14:03:04;9.10;;;5.50;;
6937;SDS011;40040;42.706;23.372;2022-08-21T14:05:35;6.25;;;5.57;;
6937;SDS011;40040;42.706;23.372;2022-08-21T14:08:05;6.43;;;5.80;;
6937;SDS011;40040;42.706;23.372;2022-08-21T14:10:35;9.30;;;6.13;;
6937;SDS011;40040;42.706;23.372;2022-08-21T14:13:07;8.40;;;6.07;;
6937;SDS011;40040;42.706;23.372;2022-08-21T14:15:56;7.35;;;6.32;;
6937;SDS011;40040;42.706;23.372;2022-08-21T14:18:25;7.68;;;6.20;;
6937;SDS011;40040;42.706;23.372;2022-08-21T14:20:57;7.88;;;6.25;;
6937;SDS011;40040;42.706;23.372;2022-08-21T14:23:30;6.80;;;5.68;;
6937;SDS011;40040;42.706;23.372;2022-08-21T14:25:58;7.88;;;5.35;;
6937;SDS011;40040;42.706;23.372;2022-08-21T14:28:30;7.75;;;5.75;;
6937;SDS011;40040;42.706;23.372;2022-08-21T14:31:11;6.75;;;5.60;;
6937;SDS011;40040;42.706;23.372;2022-08-21T14:33:41;7.85;;;5.85;;
6937;SDS011;40040;42.706;23.372;2022-08-21T14:36:08;7.95;;;5.85;;
6937;SDS011;40040;42.706;23.372;2022-08-21T14:38:36;6.72;;;6.00;;
6937;SDS011;40040;42.706;23.372;2022-08-21T14:41:08;6.43;;;5.65;;
6937;SDS011;40040;42.706;23.372;2022-08-21T14:43:42;9.88;;;6.43;;
6937;SDS011;40040;42.706;23.372;2022-08-21T14:46:12;9.13;;;6.20;;
6937;SDS011;40040;42.706;23.372;2022-08-21T14:48:45;7.43;;;5.95;;
6937;SDS011;40040;42.706;23.372;2022-08-21T14:51:12;7.60;;;5.72;;
6937;SDS011;40040;42.706;23.372;2022-08-21T14:53:39;7.55;;;5.85;;
6937;SDS011;40040;42.706;23.372;2022-08-21T14:56:07;8.40;;;5.70;;
6937;SDS011;40040;42.706;23.372;2022-08-21T14:58:41;10.30;;;6.03;;
6937;SDS011;40040;42.706;23.372;2022-08-21T15:01:12;7.85;;;6.00;;